sensor_id;sensor_type;location;lat;lon;timestamp;P1;durP1;ratioP1;P2;durP2;ratioP2
22543;SDS011;11438;52.044;8.716;2023-11-21T00:01:54;12.13;;;7.40;;
22543;SDS011;11438;52.044;8.716;2023-11-21T00:04:19;11.23;;;7.15;;
22543;SDS011;11438;52.044;8.716;2023-11-21T00:06:46;10.73;;;6.88;;
22543;SDS011;11438;52.044;8.716;2023-11-21T00:09:12;10.57;;;6.70;;
22543;SDS011;11438;52.044;8.716;2023-11-21T00:11:40;12.30;;;7.30;;
22543;SDS011;11438;52.044;8.716;2023-11-21T00:14:06;14.23;;;7.00;;
22543;SDS011;11438;52.044;8.716;2023-11-21T00:16:33;11.70;;;7.35;;
22543;SDS011;11438;52.044;8.716;2023-11-21T00:18:59;12.35;;;8.38;;
22543;SDS011;11438;52.044;8.716;2023-11-21T00:21:24;9.70;;;6.88;;
22543;SDS011;11438;52.044;8.716;2023-11-21T00:23:50;10.55;;;6.35;;
22543;SDS011;11438;52.044;8.716;2023-11-21T00:26:15;10.13;;;6.93;;
22543;SDS011;11438;52.044;8.716;2023-11-21T00:28:41;11.13;;;6.70;;
22543;SDS011;11438;52.044;8.716;2023-11-21T00:31:06;12.85;;;8.13;;
22543;SDS011;11438;52.044;8.716;2023-11-21T00:33:32;11.20;;;7.43;;
22543;SDS011;11438;52.044;8.716;2023-11-21T00:35:57;12.00;;;7.68;;
22543;SDS011;11438;52.044;8.716;2023-11-21T00:38:23;10.68;;;6.97;;
22543;SDS011;11438;52.044;8.716;2023-11-21T00:40:49;10.55;;;6.65;;
22543;SDS011;11438;52.044;8.716;2023-11-21T00:43:14;9.98;;;6.70;;
22543;SDS011;11438;52.044;8.716;2023-11-21T00:45:40;11.82;;;7.35;;
22543;SDS011;11438;52.044;8.716;2023-11-21T00:48:06;11.80;;;7.25;;
22543;SDS011;11438;52.044;8.716;2023-11-21T00:50:33;11.75;;;7.03;;
22543;SDS011;11438;52.044;8.716;2023-11-21T00:52:58;11.77;;;6.97;;
22543;SDS011;11438;52.044;8.716;2023-11-21T00:55:24;9.98;;;6.93;;
22543;SDS011;11438;52.044;8.716;2023-11-21T00:57:50;12.25;;;7.13;;
22543;SDS011;11438;52.044;8.716;2023-11-21T01:00:15;11.20;;;6.47;;
22543;SDS011;11438;52.044;8.716;2023-11-21T01:02:44;11.43;;;7.25;;
22543;SDS011;11438;52.044;8.716;2023-11-21T01:05:10;11.77;;;6.85;;
22543;SDS011;11438;52.044;8.716;2023-11-21T01:07:36;10.73;;;7.03;;
22543;SDS011;11438;52.044;8.716;2023-11-21T01:10:02;10.90;;;6.78;;
22543;SDS011;11438;52.044;8.716;2023-11-21T01:12:30;14.90;;;7.82;;
22543;SDS011;11438;52.044;8.716;2023-11-21T01:14:56;11.45;;;7.28;;
22543;SDS011;11438;52.044;8.716;2023-11-21T01:17:25;13.57;;;7.70;;
22543;SDS011;11438;52.044;8.716;2023-11-21T01:19:50;15.07;;;8.88;;
22543;SDS011;11438;52.044;8.716;2023-11-21T01:22:16;12.00;;;7.75;;
22543;SDS011;11438;52.044;8.716;2023-11-21T01:24:42;12.32;;;8.52;;
22543;SDS011;11438;52.044;8.716;2023-11-21T01:27:08;15.05;;;7.78;;
22543;SDS011;11438;52.044;8.716;2023-11-21T01:29:33;12.07;;;7.95;;
22543;SDS011;11438;52.044;8.716;2023-11-21T01:32:00;9.95;;;6.95;;
22543;SDS011;11438;52.044;8.716;2023-11-21T01:34:27;12.45;;;6.88;;
22543;SDS011;11438;52.044;8.716;2023-11-21T01:36:53;10.63;;;7.10;;
22543;SDS011;11438;52.044;8.716;2023-11-21T01:39:18;10.57;;;7.70;;
22543;SDS011;11438;52.044;8.716;2023-11-21T01:41:48;9.98;;;7.03;;
22543;SDS011;11438;52.044;8.716;2023-11-21T01:44:15;11.13;;;7.28;;
22543;SDS011;11438;52.044;8.716;2023-11-21T01:46:42;11.00;;;7.55;;
22543;SDS011;11438;52.044;8.716;2023-11-21T01:49:07;11.40;;;7.75;;
22543;SDS011;11438;52.044;8.716;2023-11-21T01:51:36;11.10;;;6.90;;
22543;SDS011;11438;52.044;8.716;2023-11-21T01:54:02;11.88;;;7.78;;
22543;SDS011;11438;52.044;8.716;2023-11-21T01:56:30;11.68;;;7.03;;
22543;SDS011;11438;52.044;8.716;2023-11-21T01:58:56;12.20;;;6.68;;
22543;SDS011;11438;52.044;8.716;2023-11-21T02:01:22;11.48;;;7.95;;
22543;SDS011;11438;52.044;8.716;2023-11-21T02:03:48;11.35;;;6.88;;
22543;SDS011;11438;52.044;8.716;2023-11-21T02:06:13;9.50;;;7.05;;
22543;SDS011;11438;52.044;8.716;2023-11-21T02:08:39;12.98;;;7.60;;
22543;SDS011;11438;52.044;8.716;2023-11-21T02:11:04;11.15;;;7.30;;
22543;SDS011;11438;52.044;8.716;2023-11-21T02:13:31;11.23;;;7.35;;
22543;SDS011;11438;52.044;8.716;2023-11-21T02:15:57;12.80;;;7.25;;
22543;SDS011;11438;52.044;8.716;2023-11-21T02:18:23;11.73;;;6.95;;
22543;SDS011;11438;52.044;8.716;2023-11-21T02:20:48;9.63;;;7.00;;
22543;SDS011;11438;52.044;8.716;2023-11-21T02:23:14;10.23;;;6.90;;
22543;SDS011;11438;52.044;8.716;2023-11-21T02:25:40;10.68;;;6.40;;
22543;SDS011;11438;52.044;8.716;2023-11-21T02:28:07;10.68;;;6.75;;
22543;SDS011;11438;52.044;8.716;2023-11-21T02:30:33;11.05;;;7.55;;
22543;SDS011;11438;52.044;8.716;2023-11-21T02:32:59;11.68;;;7.30;;
22543;SDS011;11438;52.044;8.716;2023-11-21T02:35:26;10.65;;;6.93;;
22543;SDS011;11438;52.044;8.716;2023-11-21T02:37:51;12.60;;;6.55;;
22543;SDS011;11438;52.044;8.716;2023-11-21T02:40:18;16.75;;;7.80;;
22543;SDS011;11438;52.044;8.716;2023-11-21T02:42:45;14.55;;;7.82;;
22543;SDS011;11438;52.044;8.716;2023-11-21T02:45:15;14.90;;;7.72;;
22543;SDS011;11438;52.044;8.716;2023-11-21T02:47:42;15.05;;;8.65;;
22543;SDS011;11438;52.044;8.716;2023-11-21T02:50:09;12.32;;;7.43;;
22543;SDS011;11438;52.044;8.716;2023-11-21T02:52:37;12.98;;;7.90;;
22543;SDS011;11438;52.044;8.716;2023-11-21T02:55:05;13.65;;;8.00;;
22543;SDS011;11438;52.044;8.716;2023-11-21T02:57:32;14.18;;;7.55;;
22543;SDS011;11438;52.044;8.716;2023-11-21T02:59:58;13.98;;;7.88;;
22543;SDS011;11438;52.044;8.716;2023-11-21T03:02:24;15.27;;;7.95;;
22543;SDS011;11438;52.044;8.716;2023-11-21T03:04:50;14.02;;;7.85;;
22543;SDS011;11438;52.044;8.716;2023-11-21T03:07:16;13.13;;;7.90;;
22543;SDS011;11438;52.044;8.716;2023-11-21T03:09:44;13.85;;;6.95;;
22543;SDS011;11438;52.044;8.716;2023-11-21T03:12:10;18.23;;;9.15;;
22543;SDS011;11438;52.044;8.716;2023-11-21T03:14:37;14.75;;;7.93;;
22543;SDS011;11438;52.044;8.716;2023-11-21T03:17:03;16.45;;;7.88;;
22543;SDS011;11438;52.044;8.716;2023-11-21T03:19:30;14.73;;;8.23;;
22543;SDS011;11438;52.044;8.716;2023-11-21T03:21:55;13.93;;;8.35;;
22543;SDS011;11438;52.044;8.716;2023-11-21T03:24:21;16.42;;;8.60;;
22543;SDS011;11438;52.044;8.716;2023-11-21T03:26:47;17.95;;;8.32;;
22543;SDS011;11438;52.044;8.716;2023-11-21T03:29:13;14.88;;;8.13;;
22543;SDS011;11438;52.044;8.716;2023-11-21T03:31:39;17.00;;;7.80;;
22543;SDS011;11438;52.044;8.716;2023-11-21T03:34:05;16.25;;;8.45;;
22543;SDS011;11438;52.044;8.716;2023-11-21T03:36:31;14.10;;;7.60;;
22543;SDS011;11438;52.044;8.716;2023-11-21T03:38:57;13.80;;;7.65;;
22543;SDS011;11438;52.044;8.716;2023-11-21T03:41:22;10.25;;;6.70;;
22543;SDS011;11438;52.044;8.716;2023-11-21T03:43:48;13.05;;;7.05;;
22543;SDS011;11438;52.044;8.716;2023-11-21T03:46:13;11.23;;;6.50;;
22543;SDS011;11438;52.044;8.716;2023-11-21T03:48:39;19.58;;;7.72;;
22543;SDS011;11438;52.044;8.716;2023-11-21T03:51:05;13.55;;;7.15;;
22543;SDS011;11438;52.044;8.716;2023-11-21T03:53:31;15.05;;;7.47;;
22543;SDS011;11438;52.044;8.716;2023-11-21T03:55:57;11.70;;;6.53;;
22543;SDS011;11438;52.044;8.716;2023-11-21T03:58:22;13.60;;;7.88;;
22543;SDS011;11438;52.044;8.716;2023-11-21T04:00:48;11.43;;;7.35;;
22543;SDS011;11438;52.044;8.716;2023-11-21T04:03:16;10.80;;;6.22;;
22543;SDS011;11438;52.044;8.716;2023-11-21T04:05:42;12.95;;;7.03;;
22543;SDS011;11438;52.044;8.716;2023-11-21T04:08:08;12.85;;;6.22;;
22543;SDS011;11438;52.044;8.716;2023-11-21T04:10:33;14.02;;;6.95;;
22543;SDS011;11438;52.044;8.716;2023-11-21T04:12:58;13.63;;;7.70;;
22543;SDS011;11438;52.044;8.716;2023-11-21T04:15:25;16.27;;;7.05;;
22543;SDS011;11438;52.044;8.716;2023-11-21T04:17:51;12.20;;;7.10;;
22543;SDS011;11438;52.044;8.716;2023-11-21T04:20:16;13.38;;;7.18;;
22543;SDS011;11438;52.044;8.716;2023-11-21T04:22:43;10.68;;;6.15;;
22543;SDS011;11438;52.044;8.716;2023-11-21T04:25:13;12.35;;;6.93;;
22543;SDS011;11438;52.044;8.716;2023-11-21T04:27:40;11.43;;;6.35;;
22543;SDS011;11438;52.044;8.716;2023-11-21T04:30:08;12.07;;;6.20;;
22543;SDS011;11438;52.044;8.716;2023-11-21T04:32:35;11.20;;;5.63;;
22543;SDS011;11438;52.044;8.716;2023-11-21T04:35:00;10.55;;;5.68;;
22543;SDS011;11438;52.044;8.716;2023-11-21T04:37:26;10.15;;;5.63;;
22543;SDS011;11438;52.044;8.716;2023-11-21T04:39:52;10.77;;;5.68;;
22543;SDS011;11438;52.044;8.716;2023-11-21T04:42:17;8.75;;;5.63;;
22543;SDS011;11438;52.044;8.716;2023-11-21T04:44:42;10.23;;;6.13;;
22543;SDS011;11438;52.044;8.716;2023-11-21T04:47:09;11.30;;;5.85;;
22543;SDS011;11438;52.044;8.716;2023-11-21T04:49:35;8.15;;;5.00;;
22543;SDS011;11438;52.044;8.716;2023-11-21T04:52:00;10.75;;;6.55;;
22543;SDS011;11438;52.044;8.716;2023-11-21T04:54:26;10.20;;;6.18;;
22543;SDS011;11438;52.044;8.716;2023-11-21T04:56:52;10.82;;;6.75;;
22543;SDS011;11438;52.044;8.716;2023-11-21T04:59:17;12.75;;;5.85;;
22543;SDS011;11438;52.044;8.716;2023-11-21T05:01:43;13.70;;;6.65;;
22543;SDS011;11438;52.044;8.716;2023-11-21T05:04:09;14.80;;;6.85;;
22543;SDS011;11438;52.044;8.716;2023-11-21T05:06:34;12.38;;;7.50;;
22543;SDS011;11438;52.044;8.716;2023-11-21T05:09:00;11.15;;;6.50;;
22543;SDS011;11438;52.044;8.716;2023-11-21T05:11:26;12.48;;;7.35;;
22543;SDS011;11438;52.044;8.716;2023-11-21T05:13:52;11.50;;;6.30;;
22543;SDS011;11438;52.044;8.716;2023-11-21T05:16:19;12.43;;;6.97;;
22543;SDS011;11438;52.044;8.716;2023-11-21T05:18:45;12.90;;;6.72;;
22543;SDS011;11438;52.044;8.716;2023-11-21T05:21:10;11.95;;;7.25;;
22543;SDS011;11438;52.044;8.716;2023-11-21T05:23:36;11.05;;;6.00;;
22543;SDS011;11438;52.044;8.716;2023-11-21T05:26:02;10.15;;;5.78;;
22543;SDS011;11438;52.044;8.716;2023-11-21T05:28:28;11.07;;;6.28;;
22543;SDS011;11438;52.044;8.716;2023-11-21T05:30:53;13.75;;;6.70;;
22543;SDS011;11438;52.044;8.716;2023-11-21T05:33:19;9.30;;;5.40;;
22543;SDS011;11438;52.044;8.716;2023-11-21T05:35:45;13.20;;;6.45;;
22543;SDS011;11438;52.044;8.716;2023-11-21T05:38:13;12.43;;;7.28;;
22543;SDS011;11438;52.044;8.716;2023-11-21T05:40:38;10.90;;;6.15;;
22543;SDS011;11438;52.044;8.716;2023-11-21T05:43:04;13.30;;;7.20;;
22543;SDS011;11438;52.044;8.716;2023-11-21T05:45:30;10.77;;;5.85;;
22543;SDS011;11438;52.044;8.716;2023-11-21T05:47:56;13.27;;;6.55;;
22543;SDS011;11438;52.044;8.716;2023-11-21T05:50:22;14.93;;;7.28;;
22543;SDS011;11438;52.044;8.716;2023-11-21T05:52:48;13.10;;;6.63;;
22543;SDS011;11438;52.044;8.716;2023-11-21T05:55:13;13.95;;;7.25;;
22543;SDS011;11438;52.044;8.716;2023-11-21T05:57:40;12.15;;;7.20;;
22543;SDS011;11438;52.044;8.716;2023-11-21T06:00:07;13.25;;;7.03;;
22543;SDS011;11438;52.044;8.716;2023-11-21T06:02:55;13.85;;;7.03;;
22543;SDS011;11438;52.044;8.716;2023-11-21T06:05:23;11.13;;;6.60;;
22543;SDS011;11438;52.044;8.716;2023-11-21T06:07:49;14.43;;;7.55;;
22543;SDS011;11438;52.044;8.716;2023-11-21T06:10:15;12.88;;;7.75;;
22543;SDS011;11438;52.044;8.716;2023-11-21T06:12:43;14.02;;;7.78;;
22543;SDS011;11438;52.044;8.716;2023-11-21T06:15:08;12.20;;;7.82;;
22543;SDS011;11438;52.044;8.716;2023-11-21T06:17:38;16.27;;;8.45;;
22543;SDS011;11438;52.044;8.716;2023-11-21T06:20:06;14.48;;;8.05;;
22543;SDS011;11438;52.044;8.716;2023-11-21T06:22:39;14.77;;;8.30;;
22543;SDS011;11438;52.044;8.716;2023-11-21T06:25:06;11.73;;;6.80;;
22543;SDS011;11438;52.044;8.716;2023-11-21T06:27:40;12.90;;;7.15;;
22543;SDS011;11438;52.044;8.716;2023-11-21T06:30:10;12.07;;;6.70;;
22543;SDS011;11438;52.044;8.716;2023-11-21T06:32:36;11.13;;;7.28;;
22543;SDS011;11438;52.044;8.716;2023-11-21T06:35:03;14.90;;;8.10;;
22543;SDS011;11438;52.044;8.716;2023-11-21T06:37:30;12.68;;;7.50;;
22543;SDS011;11438;52.044;8.716;2023-11-21T06:39:56;11.90;;;6.68;;
22543;SDS011;11438;52.044;8.716;2023-11-21T06:42:23;13.25;;;7.40;;
22543;SDS011;11438;52.044;8.716;2023-11-21T06:44:49;16.73;;;8.98;;
22543;SDS011;11438;52.044;8.716;2023-11-21T06:47:16;18.02;;;9.38;;
22543;SDS011;11438;52.044;8.716;2023-11-21T06:49:43;17.63;;;9.50;;
22543;SDS011;11438;52.044;8.716;2023-11-21T06:52:08;15.85;;;9.27;;
22543;SDS011;11438;52.044;8.716;2023-11-21T06:54:34;17.63;;;9.45;;
22543;SDS011;11438;52.044;8.716;2023-11-21T06:57:01;16.65;;;10.00;;
22543;SDS011;11438;52.044;8.716;2023-11-21T06:59:30;16.63;;;10.73;;
22543;SDS011;11438;52.044;8.716;2023-11-21T07:01:56;19.05;;;10.68;;
22543;SDS011;11438;52.044;8.716;2023-11-21T07:04:22;19.35;;;10.80;;
22543;SDS011;11438;52.044;8.716;2023-11-21T07:06:47;22.90;;;11.88;;
22543;SDS011;11438;52.044;8.716;2023-11-21T07:09:13;21.85;;;11.68;;
22543;SDS011;11438;52.044;8.716;2023-11-21T07:11:38;20.33;;;10.95;;
22543;SDS011;11438;52.044;8.716;2023-11-21T07:14:04;21.65;;;11.80;;
22543;SDS011;11438;52.044;8.716;2023-11-21T07:16:34;23.10;;;11.43;;
22543;SDS011;11438;52.044;8.716;2023-11-21T07:19:02;20.90;;;11.27;;
22543;SDS011;11438;52.044;8.716;2023-11-21T07:21:34;18.73;;;10.73;;
22543;SDS011;11438;52.044;8.716;2023-11-21T07:24:01;18.65;;;11.10;;
22543;SDS011;11438;52.044;8.716;2023-11-21T07:26:30;21.85;;;12.23;;
22543;SDS011;11438;52.044;8.716;2023-11-21T07:28:55;19.15;;;10.18;;
22543;SDS011;11438;52.044;8.716;2023-11-21T07:31:21;21.60;;;11.18;;
22543;SDS011;11438;52.044;8.716;2023-11-21T07:33:48;25.13;;;11.63;;
22543;SDS011;11438;52.044;8.716;2023-11-21T07:36:13;22.20;;;11.10;;
22543;SDS011;11438;52.044;8.716;2023-11-21T07:38:40;20.42;;;11.27;;
22543;SDS011;11438;52.044;8.716;2023-11-21T07:41:06;21.75;;;11.27;;
22543;SDS011;11438;52.044;8.716;2023-11-21T07:43:35;22.23;;;11.02;;
22543;SDS011;11438;52.044;8.716;2023-11-21T07:46:01;20.63;;;11.05;;
22543;SDS011;11438;52.044;8.716;2023-11-21T07:48:33;20.33;;;11.43;;
22543;SDS011;11438;52.044;8.716;2023-11-21T07:51:01;26.50;;;11.82;;
22543;SDS011;11438;52.044;8.716;2023-11-21T07:53:28;21.08;;;11.88;;
22543;SDS011;11438;52.044;8.716;2023-11-21T07:55:55;21.58;;;11.60;;
22543;SDS011;11438;52.044;8.716;2023-11-21T07:58:27;20.65;;;11.77;;
22543;SDS011;11438;52.044;8.716;2023-11-21T08:00:53;20.42;;;11.40;;
22543;SDS011;11438;52.044;8.716;2023-11-21T08:03:19;21.50;;;10.77;;
22543;SDS011;11438;52.044;8.716;2023-11-21T08:05:44;19.15;;;10.77;;
22543;SDS011;11438;52.044;8.716;2023-11-21T08:08:10;21.15;;;10.88;;
22543;SDS011;11438;52.044;8.716;2023-11-21T08:10:36;19.00;;;10.93;;
22543;SDS011;11438;52.044;8.716;2023-11-21T08:13:02;21.77;;;11.38;;
22543;SDS011;11438;52.044;8.716;2023-11-21T08:15:28;23.13;;;10.75;;
22543;SDS011;11438;52.044;8.716;2023-11-21T08:17:54;20.83;;;10.70;;
22543;SDS011;11438;52.044;8.716;2023-11-21T08:20:20;23.85;;;11.20;;
22543;SDS011;11438;52.044;8.716;2023-11-21T08:22:47;21.40;;;10.75;;
22543;SDS011;11438;52.044;8.716;2023-11-21T08:25:13;15.88;;;8.82;;
22543;SDS011;11438;52.044;8.716;2023-11-21T08:27:39;18.58;;;9.88;;
22543;SDS011;11438;52.044;8.716;2023-11-21T08:30:04;14.75;;;8.38;;
22543;SDS011;11438;52.044;8.716;2023-11-21T08:32:30;16.98;;;9.35;;
22543;SDS011;11438;52.044;8.716;2023-11-21T08:34:58;20.20;;;9.57;;
22543;SDS011;11438;52.044;8.716;2023-11-21T08:37:24;15.80;;;9.15;;
22543;SDS011;11438;52.044;8.716;2023-11-21T08:39:50;17.35;;;8.77;;
22543;SDS011;11438;52.044;8.716;2023-11-21T08:42:17;15.18;;;8.75;;
22543;SDS011;11438;52.044;8.716;2023-11-21T08:44:43;14.15;;;8.05;;
22543;SDS011;11438;52.044;8.716;2023-11-21T08:47:09;17.77;;;8.85;;
22543;SDS011;11438;52.044;8.716;2023-11-21T08:49:34;13.10;;;7.68;;
22543;SDS011;11438;52.044;8.716;2023-11-21T08:52:00;13.95;;;7.47;;
22543;SDS011;11438;52.044;8.716;2023-11-21T08:54:25;13.70;;;7.25;;
22543;SDS011;11438;52.044;8.716;2023-11-21T08:56:51;10.00;;;6.10;;
22543;SDS011;11438;52.044;8.716;2023-11-21T08:59:18;9.70;;;5.72;;
22543;SDS011;11438;52.044;8.716;2023-11-21T09:01:45;8.40;;;5.25;;
22543;SDS011;11438;52.044;8.716;2023-11-21T09:04:10;6.85;;;4.28;;
22543;SDS011;11438;52.044;8.716;2023-11-21T09:06:36;7.30;;;4.93;;
22543;SDS011;11438;52.044;8.716;2023-11-21T09:09:01;8.13;;;5.22;;
22543;SDS011;11438;52.044;8.716;2023-11-21T09:11:27;9.25;;;4.28;;
22543;SDS011;11438;52.044;8.716;2023-11-21T09:13:58;6.05;;;4.45;;
22543;SDS011;11438;52.044;8.716;2023-11-21T09:16:24;7.25;;;4.63;;
22543;SDS011;11438;52.044;8.716;2023-11-21T09:18:49;6.07;;;4.15;;
22543;SDS011;11438;52.044;8.716;2023-11-21T09:21:15;7.43;;;4.07;;
22543;SDS011;11438;52.044;8.716;2023-11-21T09:23:40;8.02;;;4.45;;
22543;SDS011;11438;52.044;8.716;2023-11-21T09:26:07;7.90;;;4.30;;
22543;SDS011;11438;52.044;8.716;2023-11-21T09:28:33;7.72;;;4.43;;
22543;SDS011;11438;52.044;8.716;2023-11-21T09:30:59;7.47;;;4.07;;
22543;SDS011;11438;52.044;8.716;2023-11-21T09:33:28;8.73;;;4.68;;
22543;SDS011;11438;52.044;8.716;2023-11-21T09:35:55;8.75;;;4.68;;
22543;SDS011;11438;52.044;8.716;2023-11-21T09:38:20;6.85;;;4.38;;
22543;SDS011;11438;52.044;8.716;2023-11-21T09:40:46;7.45;;;4.57;;
22543;SDS011;11438;52.044;8.716;2023-11-21T09:43:18;6.53;;;4.50;;
22543;SDS011;11438;52.044;8.716;2023-11-21T09:45:47;6.72;;;4.40;;
22543;SDS011;11438;52.044;8.716;2023-11-21T09:48:19;6.03;;;4.10;;
22543;SDS011;11438;52.044;8.716;2023-11-21T09:50:45;5.60;;;3.78;;
22543;SDS011;11438;52.044;8.716;2023-11-21T09:53:13;6.72;;;3.95;;
22543;SDS011;11438;52.044;8.716;2023-11-21T09:55:50;6.05;;;3.95;;
22543;SDS011;11438;52.044;8.716;2023-11-21T09:58:17;6.57;;;3.72;;
22543;SDS011;11438;52.044;8.716;2023-11-21T10:00:44;4.63;;;3.20;;
22543;SDS011;11438;52.044;8.716;2023-11-21T10:03:14;5.90;;;3.50;;
22543;SDS011;11438;52.044;8.716;2023-11-21T10:05:44;4.95;;;3.42;;
22543;SDS011;11438;52.044;8.716;2023-11-21T10:08:11;6.22;;;3.70;;
22543;SDS011;11438;52.044;8.716;2023-11-21T10:10:38;3.72;;;2.67;;
22543;SDS011;11438;52.044;8.716;2023-11-21T10:13:11;4.15;;;2.90;;
22543;SDS011;11438;52.044;8.716;2023-11-21T10:15:38;5.47;;;3.30;;
22543;SDS011;11438;52.044;8.716;2023-11-21T10:18:09;5.03;;;3.35;;
22543;SDS011;11438;52.044;8.716;2023-11-21T10:20:35;7.05;;;3.53;;
22543;SDS011;11438;52.044;8.716;2023-11-21T10:23:02;8.50;;;3.38;;
22543;SDS011;11438;52.044;8.716;2023-11-21T10:25:29;5.03;;;3.85;;
22543;SDS011;11438;52.044;8.716;2023-11-21T10:27:59;11.73;;;3.90;;
22543;SDS011;11438;52.044;8.716;2023-11-21T10:30:33;3.83;;;3.15;;
22543;SDS011;11438;52.044;8.716;2023-11-21T10:33:03;4.30;;;3.13;;
22543;SDS011;11438;52.044;8.716;2023-11-21T10:38:11;5.07;;;2.85;;
22543;SDS011;11438;52.044;8.716;2023-11-21T10:40:38;2.80;;;2.33;;
22543;SDS011;11438;52.044;8.716;2023-11-21T10:43:10;3.40;;;2.17;;
22543;SDS011;11438;52.044;8.716;2023-11-21T10:45:39;3.05;;;2.30;;
22543;SDS011;11438;52.044;8.716;2023-11-21T10:48:06;3.05;;;2.25;;
22543;SDS011;11438;52.044;8.716;2023-11-21T10:50:42;3.67;;;2.22;;
22543;SDS011;11438;52.044;8.716;2023-11-21T10:53:09;3.35;;;2.50;;
22543;SDS011;11438;52.044;8.716;2023-11-21T10:55:34;3.40;;;2.58;;
22543;SDS011;11438;52.044;8.716;2023-11-21T10:58:00;3.55;;;2.60;;
22543;SDS011;11438;52.044;8.716;2023-11-21T11:00:29;3.65;;;2.50;;
22543;SDS011;11438;52.044;8.716;2023-11-21T11:02:56;2.97;;;2.38;;
22543;SDS011;11438;52.044;8.716;2023-11-21T11:05:23;2.78;;;2.20;;
22543;SDS011;11438;52.044;8.716;2023-11-21T11:07:51;3.05;;;2.58;;
22543;SDS011;11438;52.044;8.716;2023-11-21T11:10:24;3.63;;;2.17;;
22543;SDS011;11438;52.044;8.716;2023-11-21T11:12:52;4.22;;;2.67;;
22543;SDS011;11438;52.044;8.716;2023-11-21T11:15:19;3.95;;;2.80;;
22543;SDS011;11438;52.044;8.716;2023-11-21T11:17:45;5.15;;;3.40;;
22543;SDS011;11438;52.044;8.716;2023-11-21T11:20:12;5.65;;;4.10;;
22543;SDS011;11438;52.044;8.716;2023-11-21T11:25:52;6.55;;;4.43;;
22543;SDS011;11438;52.044;8.716;2023-11-21T11:28:38;6.78;;;4.82;;
22543;SDS011;11438;52.044;8.716;2023-11-21T11:33:57;6.65;;;4.35;;
22543;SDS011;11438;52.044;8.716;2023-11-21T11:36:36;7.30;;;4.53;;
22543;SDS011;11438;52.044;8.716;2023-11-21T11:39:30;7.03;;;4.63;;
22543;SDS011;11438;52.044;8.716;2023-11-21T11:42:07;7.60;;;4.85;;
22543;SDS011;11438;52.044;8.716;2023-11-21T11:47:14;7.30;;;4.88;;
22543;SDS011;11438;52.044;8.716;2023-11-21T11:50:00;8.30;;;5.28;;
22543;SDS011;11438;52.044;8.716;2023-11-21T11:52:41;9.75;;;5.15;;
22543;SDS011;11438;52.044;8.716;2023-11-21T11:55:11;8.02;;;5.13;;
22543;SDS011;11438;52.044;8.716;2023-11-21T11:57:39;7.22;;;5.40;;
22543;SDS011;11438;52.044;8.716;2023-11-21T12:02:36;8.43;;;4.82;;
22543;SDS011;11438;52.044;8.716;2023-11-21T12:05:12;8.05;;;5.88;;
22543;SDS011;11438;52.044;8.716;2023-11-21T12:07:57;7.28;;;5.03;;
22543;SDS011;11438;52.044;8.716;2023-11-21T12:10:29;8.73;;;5.45;;
22543;SDS011;11438;52.044;8.716;2023-11-21T12:12:57;7.03;;;4.95;;
22543;SDS011;11438;52.044;8.716;2023-11-21T12:15:24;8.25;;;5.65;;
22543;SDS011;11438;52.044;8.716;2023-11-21T12:17:50;9.30;;;5.70;;
22543;SDS011;11438;52.044;8.716;2023-11-21T12:20:21;6.85;;;4.93;;
22543;SDS011;11438;52.044;8.716;2023-11-21T12:22:48;7.65;;;5.18;;
22543;SDS011;11438;52.044;8.716;2023-11-21T12:25:16;7.30;;;4.63;;
22543;SDS011;11438;52.044;8.716;2023-11-21T12:27:44;8.90;;;5.15;;
22543;SDS011;11438;52.044;8.716;2023-11-21T12:30:14;8.10;;;5.20;;
22543;SDS011;11438;52.044;8.716;2023-11-21T12:32:47;6.57;;;4.60;;
22543;SDS011;11438;52.044;8.716;2023-11-21T12:35:14;8.38;;;4.97;;
22543;SDS011;11438;52.044;8.716;2023-11-21T12:37:41;7.13;;;5.15;;
22543;SDS011;11438;52.044;8.716;2023-11-21T12:40:09;6.63;;;4.50;;
22543;SDS011;11438;52.044;8.716;2023-11-21T12:42:40;7.10;;;4.60;;
22543;SDS011;11438;52.044;8.716;2023-11-21T12:47:55;6.88;;;4.93;;
22543;SDS011;11438;52.044;8.716;2023-11-21T12:50:29;6.40;;;3.75;;
22543;SDS011;11438;52.044;8.716;2023-11-21T12:52:59;6.38;;;4.22;;
22543;SDS011;11438;52.044;8.716;2023-11-21T12:55:26;6.63;;;3.97;;
22543;SDS011;11438;52.044;8.716;2023-11-21T12:57:56;7.30;;;4.03;;
22543;SDS011;11438;52.044;8.716;2023-11-21T13:00:31;7.65;;;4.22;;
22543;SDS011;11438;52.044;8.716;2023-11-21T13:02:58;7.13;;;4.10;;
22543;SDS011;11438;52.044;8.716;2023-11-21T13:05:25;5.57;;;3.80;;
22543;SDS011;11438;52.044;8.716;2023-11-21T13:07:53;6.53;;;4.28;;
22543;SDS011;11438;52.044;8.716;2023-11-21T13:10:23;4.53;;;3.30;;
22543;SDS011;11438;52.044;8.716;2023-11-21T13:12:56;6.75;;;3.50;;
22543;SDS011;11438;52.044;8.716;2023-11-21T13:15:23;4.63;;;3.20;;
22543;SDS011;11438;52.044;8.716;2023-11-21T13:17:50;5.07;;;3.47;;
22543;SDS011;11438;52.044;8.716;2023-11-21T13:20:16;4.43;;;3.10;;
22543;SDS011;11438;52.044;8.716;2023-11-21T13:22:54;5.10;;;3.10;;
22543;SDS011;11438;52.044;8.716;2023-11-21T13:25:28;4.97;;;3.22;;
22543;SDS011;11438;52.044;8.716;2023-11-21T13:27:54;4.38;;;2.83;;
22543;SDS011;11438;52.044;8.716;2023-11-21T13:30:20;5.05;;;2.92;;
22543;SDS011;11438;52.044;8.716;2023-11-21T13:32:51;3.67;;;2.30;;
22543;SDS011;11438;52.044;8.716;2023-11-21T13:35:17;4.00;;;2.45;;
22543;SDS011;11438;52.044;8.716;2023-11-21T13:37:51;4.07;;;2.90;;
22543;SDS011;11438;52.044;8.716;2023-11-21T13:40:21;4.97;;;3.10;;
22543;SDS011;11438;52.044;8.716;2023-11-21T13:42:50;5.03;;;3.47;;
22543;SDS011;11438;52.044;8.716;2023-11-21T13:45:23;4.80;;;3.20;;
22543;SDS011;11438;52.044;8.716;2023-11-21T13:47:50;6.85;;;3.72;;
22543;SDS011;11438;52.044;8.716;2023-11-21T13:50:17;4.38;;;3.40;;
22543;SDS011;11438;52.044;8.716;2023-11-21T13:52:48;5.97;;;4.07;;
22543;SDS011;11438;52.044;8.716;2023-11-21T13:55:16;7.00;;;4.07;;
22543;SDS011;11438;52.044;8.716;2023-11-21T13:57:42;7.05;;;4.55;;
22543;SDS011;11438;52.044;8.716;2023-11-21T14:00:14;5.93;;;4.22;;
22543;SDS011;11438;52.044;8.716;2023-11-21T14:03:06;7.03;;;3.85;;
22543;SDS011;11438;52.044;8.716;2023-11-21T14:05:42;7.53;;;4.47;;
22543;SDS011;11438;52.044;8.716;2023-11-21T14:08:09;5.78;;;4.03;;
22543;SDS011;11438;52.044;8.716;2023-11-21T14:10:37;5.38;;;3.95;;
22543;SDS011;11438;52.044;8.716;2023-11-21T14:13:08;6.22;;;4.03;;
22543;SDS011;11438;52.044;8.716;2023-11-21T14:15:35;5.93;;;4.28;;
22543;SDS011;11438;52.044;8.716;2023-11-21T14:18:08;6.75;;;4.60;;
22543;SDS011;11438;52.044;8.716;2023-11-21T14:20:39;6.30;;;4.13;;
22543;SDS011;11438;52.044;8.716;2023-11-21T14:23:06;5.95;;;4.10;;
22543;SDS011;11438;52.044;8.716;2023-11-21T14:25:33;5.50;;;3.97;;
22543;SDS011;11438;52.044;8.716;2023-11-21T14:27:59;6.95;;;4.30;;
22543;SDS011;11438;52.044;8.716;2023-11-21T14:30:25;5.80;;;4.10;;
22543;SDS011;11438;52.044;8.716;2023-11-21T14:32:52;5.95;;;3.88;;
22543;SDS011;11438;52.044;8.716;2023-11-21T14:35:17;5.93;;;3.90;;
22543;SDS011;11438;52.044;8.716;2023-11-21T14:37:43;6.45;;;4.05;;
22543;SDS011;11438;52.044;8.716;2023-11-21T14:40:09;4.28;;;3.38;;
22543;SDS011;11438;52.044;8.716;2023-11-21T14:42:35;5.50;;;3.67;;
22543;SDS011;11438;52.044;8.716;2023-11-21T14:45:04;5.60;;;3.78;;
22543;SDS011;11438;52.044;8.716;2023-11-21T14:47:32;6.07;;;4.10;;
22543;SDS011;11438;52.044;8.716;2023-11-21T14:49:59;6.00;;;4.03;;
22543;SDS011;11438;52.044;8.716;2023-11-21T14:52:39;7.93;;;4.30;;
22543;SDS011;11438;52.044;8.716;2023-11-21T14:55:19;5.65;;;3.95;;
22543;SDS011;11438;52.044;8.716;2023-11-21T14:57:47;6.53;;;3.80;;